Time;durP1;ratioP1;P1;durP2;ratioP2;P2;SDS_P1;SDS_P2;PMS_P1;PMS_P2;Temp;Humidity;BMP_temperature;BMP_pressure;BME280_temperature;BME280_humidity;BME280_pressure;Samples;Min_cycle;Max_cycle;Signal;HPM_P1;HPM_P2
2021/06/11 00:01:06;;;;;;;3.53;1.80;;;22.80;85.50;30.50;99680.00;;;;5068252;28;20206;-82
2021/06/11 00:03:32;;;;;;;3.87;2.07;;;22.80;85.50;30.60;99694.00;;;;5068807;28;20182;-80
2021/06/11 00:05:58;;;;;;;4.77;2.50;;;22.80;85.50;30.50;99697.00;;;;5067333;28;20202;-82
2021/06/11 00:08:24;;;;;;;4.77;2.70;;;22.80;85.60;30.50;99690.00;;;;5051713;28;20232;-79
2021/06/11 00:10:49;;;;;;;4.10;2.40;;;22.80;85.60;30.60;99670.00;;;;5068142;28;20207;-80
2021/06/11 00:13:15;;;;;;;4.50;2.50;;;22.80;85.60;30.50;99685.00;;;;5069143;28;20177;-79
2021/06/11 00:15:41;;;;;;;3.83;2.10;;;22.80;85.60;30.60;99673.00;;;;5050625;28;20202;-80
2021/06/11 00:18:07;;;;;;;4.00;2.10;;;22.80;85.70;30.60;99683.00;;;;5051765;28;20185;-79
2021/06/11 00:20:32;;;;;;;3.90;2.20;;;22.80;85.70;30.50;99667.00;;;;5050890;28;20201;-82
2021/06/11 00:22:58;;;;;;;4.90;2.13;;;22.80;85.70;30.50;99670.00;;;;5034955;28;20217;-82
2021/06/11 00:25:25;;;;;;;4.60;2.23;;;22.80;85.70;30.40;99674.00;;;;5067618;28;20537;-81
2021/06/11 00:27:51;;;;;;;3.87;2.30;;;22.80;85.70;30.40;99670.00;;;;5051654;28;20210;-81
2021/06/11 00:30:19;;;;;;;4.00;2.07;;;22.80;85.70;30.40;99659.00;;;;5051541;28;20572;-81
2021/06/11 00:32:45;;;;;;;4.70;2.30;;;22.80;85.70;30.50;99668.00;;;;5050903;28;21107;-80
2021/06/11 00:35:12;;;;;;;4.40;2.33;;;22.70;85.60;30.40;99662.00;;;;5055310;28;20751;-79
2021/06/11 00:37:37;;;;;;;4.80;1.97;;;22.70;85.60;30.40;99667.00;;;;5054874;28;20240;-80
2021/06/11 00:40:08;;;;;;;4.53;2.60;;;22.70;85.70;30.50;99667.00;;;;5055280;28;20945;-80
2021/06/11 00:42:34;;;;;;;3.80;2.30;;;22.70;85.70;30.40;99662.00;;;;5071295;28;20225;-81
2021/06/11 00:45:01;;;;;;;4.80;2.30;;;22.70;85.80;30.40;99672.00;;;;5071873;28;21018;-80
2021/06/11 00:47:26;;;;;;;4.50;2.57;;;22.80;85.90;30.40;99661.00;;;;5037844;28;20459;-82
2021/06/11 00:49:52;;;;;;;4.40;2.57;;;22.70;85.80;30.40;99664.00;;;;5073425;28;20785;-83
2021/06/11 00:52:18;;;;;;;4.33;2.27;;;22.70;85.80;30.40;99657.00;;;;5054966;28;20197;-82
2021/06/11 00:54:44;;;;;;;4.40;2.70;;;22.70;85.80;30.30;99664.00;;;;5071207;28;20436;-82
2021/06/11 00:57:10;;;;;;;4.97;2.60;;;22.70;85.80;30.30;99657.00;;;;5071177;28;20198;-83
2021/06/11 00:59:36;;;;;;;4.03;2.13;;;22.70;85.80;30.30;99662.00;;;;5055266;28;20798;-82
2021/06/11 01:02:02;;;;;;;4.17;2.57;;;22.70;85.90;30.30;99660.00;;;;5037669;28;20280;-83
2021/06/11 01:04:28;;;;;;;4.00;2.27;;;22.70;85.90;30.40;99660.00;;;;5071907;28;20443;-83
2021/06/11 01:06:54;;;;;;;3.70;2.03;;;22.70;86.00;30.30;99654.00;;;;5070868;28;20460;-84
2021/06/11 01:09:20;;;;;;;7.20;2.50;;;22.70;85.90;30.40;99656.00;;;;5069961;28;20580;-82
2021/06/11 01:11:45;;;;;;;4.10;2.10;;;22.70;85.90;30.30;99649.00;;;;5037510;28;20575;-84
2021/06/11 01:14:11;;;;;;;4.10;2.47;;;22.70;85.90;30.30;99655.00;;;;5054472;28;20200;-83
2021/06/11 01:16:37;;;;;;;4.30;2.43;;;22.70;86.00;30.30;99643.00;;;;5053515;28;20200;-83
2021/06/11 01:19:04;;;;;;;3.93;2.40;;;22.70;85.90;30.30;99645.00;;;;5071011;28;20468;-81
2021/06/11 01:21:31;;;;;;;4.20;2.53;;;22.70;86.00;30.20;99637.00;;;;5036996;28;20251;-81
2021/06/11 01:24:15;;;;;;;4.63;2.40;;;22.60;85.80;30.30;99638.00;;;;5037293;28;20478;-80
2021/06/11 01:26:51;;;;;;;4.50;2.70;;;22.60;85.90;30.20;99643.00;;;;5071104;28;20460;-81
2021/06/11 01:29:32;;;;;;;4.20;2.40;;;22.60;85.90;30.30;99643.00;;;;5038997;28;20480;-81
2021/06/11 01:32:03;;;;;;;4.30;2.70;;;22.60;85.90;30.30;99629.00;;;;5070913;28;20456;-80
2021/06/11 01:34:40;;;;;;;4.10;2.40;;;22.60;85.90;30.30;99638.00;;;;5038948;28;20937;-81
2021/06/11 01:37:21;;;;;;;4.20;2.43;;;22.60;85.90;30.20;99643.00;;;;5039653;28;20448;-82
2021/06/11 01:39:51;;;;;;;4.80;2.70;;;22.60;85.90;30.20;99635.00;;;;5040476;28;20431;-81
2021/06/11 01:42:17;;;;;;;4.87;2.80;;;22.60;86.00;30.10;99627.00;;;;5037985;28;20501;-81
2021/06/11 01:44:44;;;;;;;4.20;2.43;;;22.60;86.00;30.30;99632.00;;;;5052534;28;20452;-80
2021/06/11 01:47:10;;;;;;;4.47;2.93;;;22.60;86.10;30.30;99627.00;;;;5054016;28;20486;-80
2021/06/11 01:49:35;;;;;;;4.03;2.53;;;22.60;86.00;30.10;99623.00;;;;5037161;28;20942;-79
2021/06/11 01:52:03;;;;;;;4.27;2.60;;;22.60;86.00;30.30;99625.00;;;;5020205;28;20498;-79
2021/06/11 01:54:29;;;;;;;3.90;2.40;;;22.60;86.10;30.10;99635.00;;;;5053692;28;20177;-80
2021/06/11 01:56:55;;;;;;;4.33;2.60;;;22.60;86.10;30.20;99628.00;;;;5053264;28;20467;-83
2021/06/11 01:59:21;;;;;;;4.20;2.40;;;22.60;86.20;30.10;99631.00;;;;5020595;28;20190;-81
2021/06/11 02:01:46;;;;;;;4.60;2.70;;;22.60;86.20;30.20;99628.00;;;;5070111;28;20201;-81
2021/06/11 02:04:12;;;;;;;4.27;2.23;;;22.60;86.30;30.10;99637.00;;;;5054059;28;20183;-81
2021/06/11 02:06:40;;;;;;;4.60;2.27;;;22.60;86.30;30.10;99630.00;;;;5037132;28;20279;-82
2021/06/11 02:09:06;;;;;;;4.37;2.70;;;22.60;86.40;30.30;99625.00;;;;5021341;28;20214;-81
2021/06/11 02:11:32;;;;;;;4.30;2.80;;;22.50;86.10;30.10;99625.00;;;;5036927;28;20460;-83
2021/06/11 02:13:59;;;;;;;4.27;2.60;;;22.50;86.10;30.20;99620.00;;;;5053813;28;20907;-81
2021/06/11 02:16:25;;;;;;;4.60;2.73;;;22.50;86.20;30.30;99641.00;;;;5070723;28;20819;-80
2021/06/11 02:18:51;;;;;;;4.23;2.57;;;22.50;86.20;30.20;99628.00;;;;5069708;28;20467;-81
2021/06/11 02:21:17;;;;;;;4.87;2.23;;;22.50;86.30;30.20;99627.00;;;;5036962;28;20492;-82
2021/06/11 02:23:43;;;;;;;6.70;2.60;;;22.50;86.30;30.20;99629.00;;;;5052970;28;20664;-83
2021/06/11 02:26:11;;;;;;;4.50;2.60;;;22.50;86.30;30.20;99626.00;;;;5052870;28;20233;-81
2021/06/11 02:28:37;;;;;;;4.07;2.30;;;22.50;86.30;30.10;99630.00;;;;5053004;28;20761;-82
2021/06/11 02:31:03;;;;;;;4.60;2.80;;;22.50;86.20;30.10;99633.00;;;;5036696;28;20622;-82
2021/06/11 02:33:28;;;;;;;4.10;2.37;;;22.50;86.30;30.10;99631.00;;;;5036062;28;20257;-81
2021/06/11 02:35:54;;;;;;;4.10;2.47;;;22.50;86.20;30.00;99631.00;;;;5053228;28;20568;-82
2021/06/11 02:38:21;;;;;;;5.10;2.30;;;22.50;86.30;30.20;99629.00;;;;5036077;28;20174;-81
2021/06/11 02:40:48;;;;;;;5.20;2.87;;;22.50;86.30;30.10;99632.00;;;;5052614;28;20937;-82
2021/06/11 02:43:15;;;;;;;5.00;2.87;;;22.50;86.30;30.10;99636.00;;;;5069509;28;20445;-81
2021/06/11 02:46:14;;;;;;;4.23;2.60;;;22.50;86.30;30.20;99632.00;;;;5036184;28;20464;-82
2021/06/11 02:49:09;;;;;;;4.60;2.80;;;22.40;86.20;30.10;99630.00;;;;5056464;28;20476;-82
2021/06/11 02:51:49;;;;;;;4.10;2.57;;;22.40;86.20;30.00;99613.00;;;;5054430;28;20490;-82
2021/06/11 02:54:28;;;;;;;4.00;2.40;;;22.40;86.30;30.00;99623.00;;;;5035307;28;20440;-81
2021/06/11 02:57:01;;;;;;;4.30;2.50;;;22.40;86.20;30.00;99632.00;;;;5035601;28;21019;-82
2021/06/11 02:59:31;;;;;;;4.40;2.70;;;22.50;86.40;30.10;99632.00;;;;5037631;28;20445;-80
2021/06/11 03:02:09;;;;;;;4.60;2.70;;;22.40;86.30;30.10;99641.00;;;;5036515;28;20463;-80
2021/06/11 03:04:38;;;;;;;3.90;2.37;;;22.40;86.30;30.10;99646.00;;;;5054261;28;20435;-79
2021/06/11 03:07:04;;;;;;;4.80;2.77;;;22.40;86.40;30.10;99647.00;;;;5051288;28;21023;-80
2021/06/11 03:09:30;;;;;;;4.10;2.50;;;22.40;86.40;30.00;99649.00;;;;5018462;28;20499;-79
2021/06/11 03:11:57;;;;;;;4.67;2.60;;;22.40;86.30;30.00;99661.00;;;;5052723;28;20201;-80
2021/06/11 03:14:24;;;;;;;4.57;2.87;;;22.40;86.40;30.00;99651.00;;;;5052081;28;20435;-79
2021/06/11 03:16:52;;;;;;;4.50;3.00;;;22.40;86.30;30.00;99654.00;;;;5052545;28;20555;-80
2021/06/11 03:19:19;;;;;;;5.90;2.93;;;22.40;86.30;29.90;99650.00;;;;5035595;28;20488;-82
2021/06/11 03:21:49;;;;;;;5.43;3.30;;;22.40;86.40;30.10;99654.00;;;;5052191;28;20802;-82
2021/06/11 03:24:15;;;;;;;5.00;3.07;;;22.40;86.40;30.10;99652.00;;;;5051445;28;20997;-83
2021/06/11 03:26:46;;;;;;;4.60;2.83;;;22.40;86.40;30.00;99651.00;;;;5070214;28;20539;-83
2021/06/11 03:29:18;;;;;;;4.57;2.90;;;22.40;86.40;30.00;99656.00;;;;5051417;28;20809;-83
2021/06/11 03:31:54;;;;;;;4.70;2.67;;;22.40;86.40;29.90;99656.00;;;;5052643;28;20463;-80
2021/06/11 03:34:24;;;;;;;4.67;3.00;;;22.30;86.30;30.00;99668.00;;;;5036913;28;20414;-80
2021/06/11 03:36:50;;;;;;;4.70;3.10;;;22.30;86.30;29.90;99660.00;;;;5068656;28;20455;-80
2021/06/11 03:39:22;;;;;;;4.10;2.77;;;22.30;86.30;29.90;99655.00;;;;5051752;28;20439;-79
2021/06/11 03:41:48;;;;;;;4.60;2.93;;;22.30;86.40;29.80;99655.00;;;;5069313;28;20467;-82
2021/06/11 03:44:13;;;;;;;4.77;3.00;;;22.30;86.30;29.80;99649.00;;;;5018207;28;21010;-79
2021/06/11 03:46:40;;;;;;;4.93;3.43;;;22.30;86.30;29.80;99645.00;;;;5035728;28;20530;-79
2021/06/11 03:49:06;;;;;;;5.20;2.73;;;22.30;86.30;29.80;99652.00;;;;5035538;28;20718;-79
2021/06/11 03:51:32;;;;;;;4.43;2.83;;;22.30;86.40;29.80;99651.00;;;;5035562;28;20430;-79
2021/06/11 03:53:58;;;;;;;4.53;3.10;;;22.30;86.40;29.90;99643.00;;;;5019049;28;20938;-79
2021/06/11 03:56:25;;;;;;;4.23;2.53;;;22.30;86.40;29.80;99651.00;;;;5035726;28;20285;-79
2021/06/11 03:58:51;;;;;;;5.23;3.10;;;22.30;86.50;29.80;99650.00;;;;5035051;28;20406;-79
2021/06/11 04:01:23;;;;;;;5.13;3.13;;;22.30;86.40;29.90;99656.00;;;;5035928;28;20690;-79
2021/06/11 04:03:48;;;;;;;4.33;2.77;;;22.30;86.40;29.90;99643.00;;;;5052291;28;20438;-79
2021/06/11 04:06:26;;;;;;;4.10;2.60;;;22.30;86.40;29.90;99660.00;;;;5052045;28;20452;-80
2021/06/11 04:08:59;;;;;;;4.20;2.80;;;22.30;86.50;29.80;99637.00;;;;5038111;28;20220;-79
2021/06/11 04:11:27;;;;;;;4.60;3.10;;;22.30;86.50;29.90;99656.00;;;;5055822;28;20469;-79
2021/06/11 04:14:00;;;;;;;4.67;3.13;;;22.30;86.50;29.80;99655.00;;;;5039847;28;20435;-79
2021/06/11 04:16:39;;;;;;;4.60;3.07;;;22.30;86.50;30.00;99658.00;;;;5039906;28;20456;-79
2021/06/11 04:19:09;;;;;;;4.60;3.10;;;22.30;86.50;29.90;99667.00;;;;5039818;28;20534;-79
2021/06/11 04:21:35;;;;;;;4.30;2.50;;;22.30;86.50;29.90;99666.00;;;;5072600;28;20989;-79
2021/06/11 04:24:08;;;;;;;4.87;3.47;;;22.30;86.60;29.80;99665.00;;;;5037942;28;20492;-79
2021/06/11 04:26:35;;;;;;;5.37;3.33;;;22.30;86.60;29.90;99664.00;;;;5039681;28;20279;-79
2021/06/11 04:29:06;;;;;;;4.50;3.00;;;22.30;86.60;29.80;99666.00;;;;5039286;28;20557;-79
2021/06/11 04:31:32;;;;;;;4.80;3.00;;;22.20;86.50;29.80;99664.00;;;;5040057;28;20451;-79
2021/06/11 04:33:58;;;;;;;4.53;3.20;;;22.30;86.60;29.90;99663.00;;;;5038128;28;20937;-79
2021/06/11 04:36:25;;;;;;;5.17;3.30;;;22.20;86.50;29.90;99654.00;;;;5055747;28;20193;-80
2021/06/11 04:39:01;;;;;;;4.33;2.93;;;22.20;86.50;30.00;99672.00;;;;5054752;28;20534;-80
2021/06/11 04:41:28;;;;;;;4.10;2.77;;;22.20;87.40;29.90;99670.00;;;;5055681;28;20480;-80
2021/06/11 04:43:57;;;;;;;4.50;3.10;;;22.20;86.60;29.90;99667.00;;;;5022229;28;20455;-80
2021/06/11 04:46:23;;;;;;;4.57;2.80;;;22.20;86.60;30.00;99671.00;;;;5038404;28;20542;-80
2021/06/11 04:48:49;;;;;;;5.10;2.90;;;22.20;86.60;29.90;99660.00;;;;5038551;28;20563;-79
2021/06/11 04:51:15;;;;;;;4.10;2.43;;;22.20;86.60;29.90;99662.00;;;;5055073;28;20209;-81
2021/06/11 04:53:41;;;;;;;4.43;2.90;;;22.20;86.60;30.00;99664.00;;;;5054741;28;20192;-80
2021/06/11 04:56:09;;;;;;;4.30;2.73;;;22.20;86.60;30.00;99660.00;;;;5054798;28;20201;-81
2021/06/11 04:58:37;;;;;;;4.80;2.97;;;22.20;86.70;30.00;99663.00;;;;5071421;28;20440;-81
2021/06/11 05:01:03;;;;;;;5.07;3.17;;;22.20;86.80;29.90;99661.00;;;;5054248;28;20501;-80
2021/06/11 05:03:29;;;;;;;4.30;2.60;;;22.20;86.80;30.00;99658.00;;;;5054548;28;20456;-80
2021/06/11 05:05:54;;;;;;;4.33;2.60;;;22.20;86.80;30.00;99663.00;;;;5072424;28;20462;-81
2021/06/11 05:08:20;;;;;;;4.97;2.63;;;22.20;86.80;29.90;99652.00;;;;5071002;28;20676;-81
2021/06/11 05:10:46;;;;;;;4.40;3.00;;;22.20;86.80;29.90;99670.00;;;;5037942;28;20286;-80
2021/06/11 05:13:12;;;;;;;4.50;3.00;;;22.20;87.70;29.90;99669.00;;;;5054881;28;20188;-80
2021/06/11 05:15:38;;;;;;;4.40;2.90;;;22.20;86.90;29.90;99656.00;;;;5070230;28;20273;-81
2021/06/11 05:18:07;;;;;;;4.70;2.67;;;22.20;86.90;29.80;99659.00;;;;5055101;28;20663;-80
2021/06/11 05:20:33;;;;;;;4.83;3.40;;;22.20;86.90;29.80;99661.00;;;;5054246;28;20921;-81
2021/06/11 05:22:59;;;;;;;4.37;2.83;;;22.20;87.00;30.00;99656.00;;;;5054392;28;20424;-80
2021/06/11 05:25:25;;;;;;;4.53;3.07;;;22.20;86.90;29.90;99660.00;;;;5054066;28;20563;-81
2021/06/11 05:27:52;;;;;;;4.10;2.77;;;22.20;86.90;29.90;99665.00;;;;5071042;28;20209;-80
2021/06/11 05:30:19;;;;;;;4.00;2.50;;;22.20;87.00;29.80;99654.00;;;;5053519;28;20501;-80
2021/06/11 05:32:45;;;;;;;4.43;2.97;;;22.20;87.00;29.80;99663.00;;;;5054790;28;20443;-79
2021/06/11 05:35:11;;;;;;;4.57;2.80;;;22.20;87.00;30.00;99671.00;;;;5037657;28;20456;-82
2021/06/11 05:37:37;;;;;;;4.30;2.73;;;22.20;87.00;29.70;99663.00;;;;5054045;28;20463;-81
2021/06/11 05:40:04;;;;;;;4.77;3.03;;;22.20;87.00;29.90;99660.00;;;;5053915;28;20561;-82
2021/06/11 05:42:29;;;;;;;4.50;3.00;;;22.20;87.00;29.80;99662.00;;;;5053341;28;20205;-83
2021/06/11 05:44:55;;;;;;;4.70;3.20;;;22.20;87.00;29.90;99669.00;;;;5054020;28;20485;-81
2021/06/11 05:47:21;;;;;;;4.23;2.53;;;22.20;87.00;29.80;99669.00;;;;5054115;28;20212;-83
2021/06/11 05:49:47;;;;;;;4.27;3.00;;;22.20;87.10;29.70;99678.00;;;;5053382;28;20209;-81
2021/06/11 05:52:12;;;;;;;4.67;3.07;;;22.20;87.00;29.80;99667.00;;;;5070661;28;20284;-83
2021/06/11 05:54:38;;;;;;;4.67;2.83;;;22.20;87.10;30.00;99665.00;;;;5070200;28;20181;-82
2021/06/11 05:57:04;;;;;;;4.27;2.80;;;22.20;87.10;30.00;99674.00;;;;5052969;28;20209;-83
2021/06/11 05:59:30;;;;;;;4.30;3.10;;;22.20;87.10;30.00;99673.00;;;;5053996;28;20211;-83
2021/06/11 06:01:56;;;;;;;4.20;2.70;;;22.20;87.20;30.00;99684.00;;;;5053733;28;20422;-83
2021/06/11 06:04:21;;;;;;;4.60;2.70;;;22.10;87.00;29.80;99675.00;;;;5070218;28;20193;-81
2021/06/11 06:06:47;;;;;;;4.80;3.07;;;22.10;87.00;29.90;99683.00;;;;5070181;28;20285;-83
2021/06/11 06:09:13;;;;;;;4.13;2.73;;;22.20;87.60;29.90;99680.00;;;;5071236;28;20227;-83
2021/06/11 06:11:38;;;;;;;4.70;3.40;;;22.20;87.20;30.00;99683.00;;;;5069187;28;20263;-82
2021/06/11 06:14:05;;;;;;;4.23;2.73;;;22.20;87.30;30.00;99683.00;;;;5071579;28;20185;-83
2021/06/11 06:16:31;;;;;;;5.13;2.73;;;22.20;87.20;29.70;99675.00;;;;5071429;28;20454;-82
2021/06/11 06:18:57;;;;;;;4.10;2.57;;;22.20;87.30;30.00;99683.00;;;;5053139;28;20406;-82
2021/06/11 06:21:29;;;;;;;5.53;3.80;;;22.20;87.30;29.80;99674.00;;;;5052606;28;20467;-83
2021/06/11 06:23:55;;;;;;;4.83;2.63;;;22.10;87.20;29.80;99687.00;;;;5071297;28;20427;-82
2021/06/11 06:26:21;;;;;;;4.10;2.70;;;22.10;88.00;29.90;99688.00;;;;5068913;28;20466;-82
2021/06/11 06:28:47;;;;;;;5.40;3.07;;;22.10;87.30;29.90;99684.00;;;;5071420;28;20769;-81
2021/06/11 06:31:12;;;;;;;4.90;3.10;;;22.10;87.20;29.90;99689.00;;;;5051762;28;20292;-83
2021/06/11 06:33:38;;;;;;;5.10;3.20;;;22.20;87.40;29.90;99686.00;;;;5069571;28;20257;-82
2021/06/11 06:36:06;;;;;;;4.73;3.00;;;22.20;87.40;29.80;99663.00;;;;5070916;28;20587;-83
2021/06/11 06:38:32;;;;;;;4.30;2.80;;;22.10;87.30;29.90;99689.00;;;;5020343;28;20184;-83
2021/06/11 06:40:59;;;;;;;5.20;3.90;;;22.10;87.40;29.80;99680.00;;;;5052720;28;20460;-83
2021/06/11 06:43:25;;;;;;;4.43;3.17;;;22.10;87.30;29.70;99685.00;;;;5037088;28;20188;-83
2021/06/11 06:45:51;;;;;;;4.40;2.83;;;22.10;87.40;29.70;99679.00;;;;5068954;28;20467;-84
2021/06/11 06:48:16;;;;;;;5.00;3.17;;;22.10;87.80;29.60;99683.00;;;;5052751;28;20205;-83
2021/06/11 06:50:42;;;;;;;4.73;2.67;;;22.20;87.50;29.80;99684.00;;;;5069577;28;20201;-84
2021/06/11 06:53:09;;;;;;;4.63;3.00;;;22.10;87.40;29.70;99676.00;;;;5068745;28;20250;-82
2021/06/11 06:55:34;;;;;;;4.97;2.57;;;22.10;87.40;29.60;99649.00;;;;5068726;28;20969;-84
2021/06/11 06:58:00;;;;;;;4.67;3.20;;;22.10;87.40;29.90;99676.00;;;;5069021;28;20489;-83
2021/06/11 07:00:26;;;;;;;5.47;3.37;;;22.20;87.60;29.70;99672.00;;;;5068294;28;20344;-84
2021/06/11 07:02:52;;;;;;;5.17;3.00;;;22.10;87.50;30.00;99670.00;;;;5068981;28;20185;-83
2021/06/11 07:05:18;;;;;;;4.60;2.50;;;22.10;87.50;29.80;99674.00;;;;5036276;28;20182;-84
2021/06/11 07:07:43;;;;;;;4.40;3.03;;;22.10;87.50;29.80;99671.00;;;;5068194;28;20686;-84
2021/06/11 07:10:10;;;;;;;4.00;2.60;;;22.10;87.50;29.80;99677.00;;;;5051653;28;20220;-82
2021/06/11 07:12:36;;;;;;;5.00;3.67;;;22.10;87.50;29.80;99665.00;;;;5068848;28;20201;-83
2021/06/11 07:15:06;;;;;;;4.87;3.33;;;22.10;87.50;29.80;99659.00;;;;5067611;28;20435;-84
2021/06/11 07:17:32;;;;;;;4.83;3.13;;;22.20;87.60;29.80;99661.00;;;;5069787;28;20458;-84
2021/06/11 07:19:57;;;;;;;4.90;2.93;;;22.10;87.50;29.90;99674.00;;;;5068980;28;20435;-82
2021/06/11 07:22:23;;;;;;;6.00;3.00;;;22.10;87.50;29.90;99666.00;;;;5051147;28;20300;-84
2021/06/11 07:24:49;;;;;;;4.90;3.13;;;22.10;87.50;29.90;99664.00;;;;5068376;28;20568;-84
2021/06/11 07:27:15;;;;;;;4.73;3.00;;;22.10;87.50;29.90;99666.00;;;;5051697;28;20744;-83
2021/06/11 07:29:43;;;;;;;5.77;3.27;;;22.10;87.60;29.90;99663.00;;;;5068993;28;20296;-82
2021/06/11 07:32:11;;;;;;;5.10;2.90;;;22.10;87.50;29.90;99664.00;;;;5068267;28;20197;-83
2021/06/11 07:34:38;;;;;;;4.90;3.10;;;22.10;87.60;29.80;99665.00;;;;5051084;28;20497;-83
2021/06/11 07:37:04;;;;;;;5.17;3.13;;;22.10;87.60;29.90;99665.00;;;;5050025;28;20459;-83
2021/06/11 07:39:30;;;;;;;4.97;3.07;;;22.10;87.60;29.90;99660.00;;;;5067961;28;20682;-83
2021/06/11 07:41:56;;;;;;;4.70;3.10;;;22.10;87.60;29.90;99668.00;;;;5051164;28;21116;-84
2021/06/11 07:44:22;;;;;;;4.27;2.57;;;22.10;87.60;29.80;99672.00;;;;5070276;28;20436;-83
2021/06/11 07:46:48;;;;;;;4.40;2.80;;;22.10;87.60;29.80;99665.00;;;;5068342;28;20605;-83
2021/06/11 07:49:14;;;;;;;4.43;2.80;;;22.10;87.60;29.80;99659.00;;;;5051537;28;20532;-83
2021/06/11 07:51:41;;;;;;;4.30;2.90;;;22.10;87.70;29.90;99660.00;;;;5068400;28;20197;-84
2021/06/11 07:54:07;;;;;;;4.70;2.80;;;22.10;87.80;29.80;99661.00;;;;5018588;28;20435;-83
2021/06/11 07:56:34;;;;;;;6.27;3.27;;;22.10;87.70;29.80;99659.00;;;;5067840;28;20464;-84
2021/06/11 07:59:00;;;;;;;5.23;2.90;;;22.10;87.70;29.70;99665.00;;;;5051939;28;20451;-83
2021/06/11 08:01:26;;;;;;;4.60;2.97;;;22.10;87.70;29.80;99662.00;;;;5069315;28;20486;-84
2021/06/11 08:03:54;;;;;;;5.80;3.30;;;22.10;87.70;29.90;99657.00;;;;5068885;28;20486;-84
2021/06/11 08:06:20;;;;;;;5.07;3.40;;;22.10;87.70;29.80;99667.00;;;;5052141;28;20775;-84
2021/06/11 08:08:46;;;;;;;4.90;2.97;;;22.10;87.70;29.90;99672.00;;;;5068040;28;20566;-83
2021/06/11 08:11:12;;;;;;;4.80;3.00;;;22.10;87.70;30.00;99666.00;;;;5068044;28;20212;-84
2021/06/11 08:13:38;;;;;;;4.27;2.70;;;22.10;87.80;29.90;99656.00;;;;5068473;28;20690;-83
2021/06/11 08:16:04;;;;;;;4.30;2.77;;;22.20;87.80;29.80;99659.00;;;;5068673;28;20261;-85
2021/06/11 08:18:30;;;;;;;4.40;2.90;;;22.10;87.80;30.00;99647.00;;;;5067137;28;20533;-83
2021/06/11 08:20:56;;;;;;;4.63;2.90;;;22.10;87.80;29.90;99667.00;;;;5045899;28;21011;-84
2021/06/11 08:23:22;;;;;;;5.17;3.23;;;22.10;87.80;29.80;99661.00;;;;5050862;28;20182;-83
2021/06/11 08:25:47;;;;;;;4.30;2.83;;;22.10;88.60;29.70;99661.00;;;;5050502;28;20304;-84
2021/06/11 08:28:13;;;;;;;5.20;3.20;;;22.10;87.80;29.90;99656.00;;;;5067450;28;20213;-83
2021/06/11 08:30:39;;;;;;;4.80;3.10;;;22.10;87.80;29.80;99657.00;;;;5050308;28;20206;-84
2021/06/11 08:33:06;;;;;;;4.70;3.33;;;22.20;87.90;29.90;99656.00;;;;5068887;28;20211;-82
2021/06/11 08:35:32;;;;;;;4.70;3.00;;;22.10;87.80;29.90;99656.00;;;;5049530;28;20204;-84
2021/06/11 08:37:58;;;;;;;4.33;2.60;;;22.10;87.80;29.90;99664.00;;;;5050509;28;20922;-83
2021/06/11 08:40:24;;;;;;;4.60;2.60;;;22.10;87.80;29.70;99668.00;;;;5067625;28;20443;-84
2021/06/11 08:42:50;;;;;;;4.17;2.20;;;22.10;87.80;29.70;99651.00;;;;5067422;28;20177;-83
2021/06/11 08:45:16;;;;;;;4.77;3.03;;;22.10;87.80;29.70;99658.00;;;;5033685;28;20519;-83
2021/06/11 08:47:49;;;;;;;4.67;2.87;;;22.20;87.90;29.80;99652.00;;;;5018095;28;20463;-84
2021/06/11 08:50:19;;;;;;;4.37;2.90;;;22.10;87.80;29.80;99662.00;;;;5035297;28;20539;-84
2021/06/11 08:52:45;;;;;;;4.83;2.97;;;22.20;87.90;29.80;99647.00;;;;5068767;28;20782;-85
2021/06/11 08:55:13;;;;;;;4.60;3.00;;;22.20;88.00;29.70;99647.00;;;;5052573;28;20444;-84
2021/06/11 08:57:39;;;;;;;4.83;2.93;;;22.10;87.80;29.70;99634.00;;;;5037868;28;20256;-84
2021/06/11 09:00:07;;;;;;;4.50;2.80;;;22.10;87.90;29.80;99644.00;;;;5035909;28;20436;-83
2021/06/11 09:02:33;;;;;;;4.50;2.90;;;22.10;87.80;29.60;99643.00;;;;5054466;28;20288;-84
2021/06/11 09:04:59;;;;;;;4.30;2.70;;;22.10;87.90;29.80;99639.00;;;;5053153;28;20527;-84
2021/06/11 09:07:26;;;;;;;4.70;2.70;;;22.10;87.90;30.00;99649.00;;;;5070629;28;20954;-84
2021/06/11 09:10:04;;;;;;;4.10;2.60;;;22.10;87.90;29.90;99636.00;;;;5071335;28;20682;-84
2021/06/11 09:12:35;;;;;;;4.20;2.60;;;22.10;87.90;29.90;99640.00;;;;5055639;28;20464;-84
2021/06/11 09:15:09;;;;;;;4.33;2.60;;;22.10;87.90;29.80;99628.00;;;;5033710;28;20442;-84
2021/06/11 09:17:42;;;;;;;4.57;2.87;;;22.10;87.90;29.80;99634.00;;;;5052636;28;20462;-83
2021/06/11 09:20:31;;;;;;;4.43;2.87;;;22.10;87.90;29.70;99635.00;;;;5032540;28;20782;-83
2021/06/11 09:23:00;;;;;;;4.93;2.87;;;22.10;87.90;29.80;99626.00;;;;5034441;28;20519;-83
2021/06/11 09:25:33;;;;;;;4.40;2.50;;;22.20;88.00;29.80;99620.00;;;;5017246;28;21133;-84
2021/06/11 09:28:13;;;;;;;4.13;2.83;;;22.20;88.00;29.80;99621.00;;;;5050346;28;20492;-84
2021/06/11 09:30:39;;;;;;;4.30;2.70;;;22.20;88.00;29.80;99625.00;;;;5018091;28;20460;-82
2021/06/11 09:33:15;;;;;;;4.27;2.63;;;22.20;88.10;29.90;99622.00;;;;5051735;28;20527;-81
2021/06/11 09:35:51;;;;;;;4.20;2.60;;;22.20;88.00;29.90;99626.00;;;;5048440;28;20205;-82
2021/06/11 09:38:29;;;;;;;4.30;2.70;;;22.20;88.90;29.90;99625.00;;;;5052092;28;20433;-83
2021/06/11 09:40:58;;;;;;;4.70;2.90;;;22.20;88.10;30.00;99616.00;;;;5017352;28;20462;-83
2021/06/11 09:43:26;;;;;;;5.30;2.70;;;22.20;88.10;30.00;99619.00;;;;5051158;28;20445;-82
2021/06/11 09:46:22;;;;;;;4.77;3.00;;;22.20;88.10;29.90;99610.00;;;;5032513;28;20552;-83
2021/06/11 09:48:50;;;;;;;4.60;2.60;;;22.20;88.10;30.10;99608.00;;;;5048130;28;20489;-84
2021/06/11 09:51:17;;;;;;;4.63;2.70;;;22.20;88.10;29.90;99602.00;;;;5017827;28;20465;-84
2021/06/11 09:53:43;;;;;;;4.30;2.80;;;22.20;88.10;30.10;99599.00;;;;5034349;28;20473;-83
2021/06/11 09:56:27;;;;;;;5.50;2.97;;;22.20;88.10;30.00;99611.00;;;;5016188;28;20547;-83
2021/06/11 09:58:55;;;;;;;3.93;2.27;;;22.20;88.10;30.00;99598.00;;;;5017512;28;20936;-84
2021/06/11 10:01:21;;;;;;;4.27;2.50;;;22.20;88.10;30.00;99598.00;;;;5033338;28;20476;-83
2021/06/11 10:03:49;;;;;;;4.80;2.70;;;22.20;88.20;30.00;99603.00;;;;5050094;28;20923;-81
2021/06/11 10:06:16;;;;;;;4.10;2.50;;;22.20;88.10;30.10;99590.00;;;;5016254;28;20207;-82
2021/06/11 10:08:47;;;;;;;4.70;2.83;;;22.20;88.10;29.90;99590.00;;;;5017295;28;20464;-82
2021/06/11 10:11:22;;;;;;;4.30;2.63;;;22.20;88.10;29.90;99586.00;;;;5017274;28;20556;-82
2021/06/11 10:13:49;;;;;;;4.30;2.50;;;22.20;88.20;30.10;99575.00;;;;5034561;28;20492;-82
2021/06/11 10:16:18;;;;;;;5.37;3.53;;;22.20;88.20;30.00;99572.00;;;;5033487;28;20551;-82
2021/06/11 10:18:44;;;;;;;4.70;3.20;;;22.20;88.20;29.90;99575.00;;;;5033571;28;20440;-83
2021/06/11 10:21:10;;;;;;;4.13;2.63;;;22.20;88.20;30.20;99567.00;;;;5033341;28;20488;-81
2021/06/11 10:23:36;;;;;;;4.80;3.10;;;22.20;88.20;30.10;99569.00;;;;5051001;28;20436;-82
2021/06/11 10:26:04;;;;;;;4.63;2.90;;;22.20;88.20;29.90;99557.00;;;;5013090;28;20483;-83
2021/06/11 10:28:44;;;;;;;4.57;2.90;;;22.20;88.30;30.10;99560.00;;;;5036688;28;20467;-83
2021/06/11 10:31:28;;;;;;;4.50;2.83;;;22.20;88.30;30.20;99562.00;;;;5051961;28;20457;-83
2021/06/11 10:34:00;;;;;;;4.40;2.60;;;22.20;88.30;30.10;99566.00;;;;5035132;28;20442;-82
2021/06/11 10:36:46;;;;;;;4.60;2.77;;;22.20;88.30;30.00;99563.00;;;;5036884;28;20966;-83
2021/06/11 10:39:18;;;;;;;5.43;3.13;;;22.20;88.30;30.20;99562.00;;;;5068462;28;20427;-81
2021/06/11 10:41:59;;;;;;;4.30;2.60;;;22.20;88.30;30.20;99562.00;;;;5070404;28;20451;-82
2021/06/11 10:44:46;;;;;;;4.30;2.70;;;22.20;88.30;30.20;99562.00;;;;5070506;28;20444;-82
2021/06/11 10:47:18;;;;;;;4.40;3.00;;;22.20;88.30;30.20;99560.00;;;;5036983;28;20463;-82
2021/06/11 10:49:59;;;;;;;4.07;2.50;;;22.20;88.30;30.10;99555.00;;;;5070149;28;20472;-82
2021/06/11 10:52:50;;;;;;;4.13;2.50;;;22.20;88.30;30.10;99542.00;;;;5068785;28;20571;-83
2021/06/11 10:55:23;;;;;;;4.60;2.73;;;22.20;88.30;30.10;99561.00;;;;5051939;28;20506;-83
2021/06/11 10:57:52;;;;;;;4.07;2.50;;;22.20;88.30;30.20;99566.00;;;;5070428;28;20407;-82
2021/06/11 11:00:23;;;;;;;4.53;2.83;;;22.20;88.30;30.20;99561.00;;;;5069666;28;20442;-83